Latest Weather Observations for PORTABLE VPHF (DELWP)

IDV60801

Issued at 9:23 pm EST Wednesday 21 April 2021 (issued every 10 minutes, with the page automatically refreshed every 10 minutes)

About weather observations | Map of weather stations | Latest weather observations for VIC | Other Formats
Station Details ID: 250126 Name: PORTABLE VIC HARVEST F (DELWP) Lat: -37.14 Lon: 142.56 Height: 20.0 m

Portable automatic weather stations (PAWS) are operated by other organisations, such as Fire and Emergency Services, and are included here by agreement. Portable stations may be deployed to a location for a short period and their location may be subject to change without notice. Wind observations from these stations are provided from heights of either three (3) or ten (10) metres above ground level (AGL).

Data from the previous 72 hours. | See also: Recent months for locations in Victoria
Date/Time
EST
Temp
°C
App
Temp
°C
Dew
Point
°C
Rel
Hum
%
Delta-T
°C
Wind Press
QNH
hPa
Press
MSL
hPa
Rain since
9am
mm
Dir  Spd
km/h
Gust
km/h
Spd
kts
Gust
kts
21/09:00pm 11.6 9.1 3.6 58 3.5 WNW 6 19 3 10 - - -
21/08:30pm 11.6 9.1 3.6 58 3.5 NW 6 20 3 11 - - -
21/08:00pm 11.0 8.9 3.8 61 3.2 WNW 4 9 2 5 - - -
21/07:30pm 10.7 8.6 3.7 62 3.1 W 4 7 2 4 - - -
21/07:00pm 10.4 8.2 3.2 61 3.1 WSW 4 9 2 5 - - -
21/06:30pm 11.7 9.5 3.2 56 3.7 W 4 13 2 7 - - -
21/06:00pm 11.6 9.3 2.9 55 3.8 WSW 4 7 2 4 - - -
21/05:30pm 12.2 9.5 2.9 53 4.1 WSW 6 13 3 7 - - -
21/05:00pm 12.4 10.1 2.8 52 4.2 WNW 4 13 2 7 - - -
21/04:30pm 12.7 10.4 2.6 50 4.4 ENE 4 7 2 4 - - -
21/04:00pm 12.6 9.9 2.4 50 4.4 NW 6 13 3 7 - - -
21/03:30pm 13.0 10.0 1.9 47 4.8 WNW 7 17 4 9 - - -
21/03:00pm 12.8 9.8 2.1 48 4.6 WSW 7 15 4 8 - - -
21/02:30pm 13.4 10.6 2.3 47 4.9 WSW 6 17 3 9 - - -
21/02:00pm 12.6 9.7 2.8 51 4.3 WSW 7 20 4 11 - - -
21/01:30pm 12.1 9.2 2.6 52 4.1 SSW 7 17 4 9 - - -
21/01:00pm 12.1 9.5 3.1 54 4.0 WSW 6 15 3 8 - - -
21/12:30pm 11.5 8.8 2.8 55 3.8 SSW 6 15 3 8 - - -
21/12:00pm 11.1 7.8 2.4 55 3.7 SSW 9 20 5 11 - - -
21/11:30am 10.9 7.5 1.9 54 3.8 SSW 9 19 5 10 - - -
21/11:00am 11.0 8.7 2.8 57 3.6 WSW 4 11 2 6 - - -
21/10:30am 12.2 9.3 2.6 52 4.2 W 7 19 4 10 - - -
21/10:00am 11.3 9.3 4.5 63 3.1 NW 4 11 2 6 - - -
21/09:30am 9.8 7.8 4.4 69 2.4 N 4 9 2 5 - - -
21/09:00am 8.1 6.0 3.8 74 1.9 N 4 7 2 4 - - -
21/08:30am 5.5 3.5 2.5 81 1.2 WSW 2 6 1 3 - - -
21/08:00am 3.0 0.9 1.7 91 0.5 NW 2 4 1 2 - - -
21/07:30am 1.4 -0.9 0.1 91 0.5 SSE 2 6 1 3 - - -
21/07:00am 1.4 -1.4 -0.2 89 0.6 SSW 4 7 2 4 - - -
21/06:30am 2.3 -0.1 -0.1 84 0.9 WNW 2 7 1 4 - - -
21/06:00am 4.5 2.0 1.7 82 1.1 SW 4 7 2 4 - - -
21/05:30am 3.0 0.7 0.6 84 0.9 W 2 4 1 2 - - -
21/05:00am 3.6 0.6 1.1 84 1.0 SW 6 9 3 5 - - -
21/04:00am 3.3 0.7 0.9 84 0.9 SW 4 9 2 5 - - -
21/03:30am 3.3 1.1 1.2 86 0.8 W 2 7 1 4 - - -
21/03:00am 4.1 2.0 1.5 83 1.0 SW 2 6 1 3 - - -
21/02:30am 4.7 2.2 1.4 79 1.3 WSW 4 9 2 5 - - -
21/02:00am 4.7 2.6 1.6 80 1.2 WSW 2 6 1 3 - - -
21/01:30am 6.6 4.2 1.9 72 1.9 SSW 4 9 2 5 - - -
21/01:00am 7.2 4.2 2.3 71 2.0 S 7 15 4 8 - - -
21/12:30am 7.1 4.3 2.2 71 2.0 S 6 13 3 7 - - -
21/12:00am 4.6 2.1 1.8 82 1.1 SSW 4 6 2 3 - - -
 
Date/Time
EST
Temp
°C
App
Temp
°C
Dew
Point
°C
Rel
Hum
%
Delta-T
°C
Wind Press
QNH
hPa
Press
MSL
hPa
Rain since
9am
mm
Dir  Spd
km/h
Gust
km/h
Spd
kts
Gust
kts
20/11:30pm 5.1 3.0 1.6 78 1.4 S 2 6 1 3 - - -
20/11:00pm 6.1 3.7 2.0 75 1.7 S 4 11 2 6 - - -
20/10:30pm 4.6 2.1 1.8 82 1.1 S 4 6 2 3 - - -
20/10:00pm 6.2 3.8 2.1 75 1.7 SSW 4 7 2 4 - - -
20/09:30pm 7.3 4.4 2.4 71 2.0 S 7 15 4 8 - - -
20/09:00pm 7.5 4.8 2.6 71 2.0 S 6 11 3 6 - - -
20/08:30pm 7.8 5.5 2.7 70 2.1 S 4 11 2 6 - - -
20/08:00pm 7.8 5.5 2.9 71 2.1 S 4 17 2 9 - - -
20/07:30pm 8.6 5.8 3.4 70 2.2 SSE 7 17 4 9 - - -
20/07:00pm 9.1 5.9 3.1 66 2.6 S 9 28 5 15 - - -
20/06:30pm 9.2 6.1 3.4 67 2.5 SSE 9 32 5 17 - - -
20/06:00pm 9.4 5.9 3.4 66 2.6 S 11 26 6 14 - - -
20/05:30pm 9.9 6.5 3.9 66 2.6 S 11 26 6 14 - - -
20/05:00pm 11.1 7.2 3.6 60 3.3 S 13 28 7 15 - - -
20/04:30pm 10.6 6.9 4.3 65 2.8 S 13 26 7 14 - - -
20/04:00pm 11.6 7.9 4.3 61 3.3 S 13 37 7 20 - - -
20/03:30pm 11.5 9.2 5.8 68 2.7 SSE 7 20 4 11 - - -
20/03:00pm 11.5 8.5 6.2 70 2.5 SSE 11 37 6 20 - - -
20/02:30pm 12.0 9.4 6.3 68 2.7 S 9 22 5 12 - - -
20/02:00pm 12.1 9.2 6.4 68 2.7 SE 11 28 6 15 - - -
20/01:30pm 12.4 10.1 7.5 72 2.4 SE 9 22 5 12 - - -
20/01:00pm 11.1 9.2 7.6 79 1.7 SSE 7 26 4 14 - - -
20/12:30pm 10.8 8.5 7.5 80 1.6 S 9 20 5 11 - - -
20/12:00pm 11.3 10.2 8.5 83 1.4 SSE 4 11 2 6 - - -
20/11:30am 11.1 10.6 9.4 89 0.9 NW 2 4 1 2 - - -
20/11:00am 10.8 10.2 8.9 88 0.9 NNE 2 6 1 3 - - -
20/10:30am 10.8 10.1 8.4 85 1.2 ESE 2 6 1 3 - - -
20/10:00am 11.6 9.9 8.3 80 1.6 SW 7 22 4 12 - - -
20/09:30am 12.7 10.2 8.2 74 2.2 WSW 11 32 6 17 - - -
20/09:00am 15.3 13.4 7.6 60 3.8 NW 7 22 4 12 - - -
20/08:30am 14.5 12.5 7.1 61 3.6 WNW 7 20 4 11 - - -
20/08:00am 14.1 11.6 6.7 61 3.6 W 9 32 5 17 - - -
20/07:30am 14.1 11.2 6.4 60 3.7 WNW 11 30 6 16 - - -
20/07:00am 14.1 11.2 6.7 61 3.6 WNW 11 33 6 18 - - -
20/06:30am 14.3 11.0 6.6 60 3.7 WNW 13 41 7 22 - - -
20/06:00am 14.2 11.6 7.7 65 3.2 WNW 11 37 6 20 - - -
20/05:30am 14.5 12.0 8.3 66 3.1 WNW 11 43 6 23 - - -
20/05:00am 14.3 12.2 8.3 67 3.0 NW 9 24 5 13 - - -
20/04:30am 14.5 12.6 8.9 69 2.8 NW 9 26 5 14 - - -
20/04:00am 14.5 12.9 8.9 69 2.8 WNW 7 24 4 13 - - -
20/03:30am 14.6 13.3 9.2 70 2.8 W 6 20 3 11 - - -
20/03:00am 14.9 13.7 9.7 71 2.7 W 6 22 3 12 - - -
20/02:30am 15.2 13.5 9.8 70 2.8 WNW 9 32 5 17 - - -
20/02:00am 15.0 14.2 9.6 70 2.8 W 4 17 2 9 - - -
20/01:30am 15.3 13.9 9.4 68 3.0 WNW 7 24 4 13 - - -
20/01:00am 15.4 13.9 9.3 67 3.1 W 7 19 4 10 - - -
20/12:30am 15.4 14.1 9.1 66 3.2 W 6 17 3 9 - - -
20/12:00am 15.3 14.2 8.5 64 3.4 NW 4 17 2 9 - - -
 
Date/Time
EST
Temp
°C
App
Temp
°C
Dew
Point
°C
Rel
Hum
%
Delta-T
°C
Wind Press
QNH
hPa
Press
MSL
hPa
Rain since
9am
mm
Dir  Spd
km/h
Gust
km/h
Spd
kts
Gust
kts
19/11:30pm 15.5 13.1 8.5 63 3.6 NW 11 32 6 17 - - -
19/11:00pm 15.3 13.6 8.3 63 3.5 NW 7 17 4 9 - - -
19/10:30pm 15.4 13.8 7.9 61 3.8 NW 6 15 3 8 - - -
19/10:00pm 15.6 14.0 7.9 60 3.9 NW 6 11 3 6 - - -
19/09:30pm 16.1 14.8 7.8 58 4.2 W 4 15 2 8 - - -
19/09:00pm 16.3 14.5 7.8 57 4.3 NW 7 30 4 16 - - -
19/08:30pm 16.2 14.3 7.4 56 4.4 NW 7 26 4 14 - - -
19/08:00pm 16.3 14.0 7.3 55 4.5 NW 9 30 5 16 - - -
19/07:30pm 16.3 14.1 7.8 57 4.3 NW 9 24 5 13 - - -
19/07:00pm 16.8 14.1 7.2 53 4.8 NW 11 26 6 14 - - -
19/06:30pm 17.2 14.8 7.0 51 5.1 NW 9 26 5 14 - - -
19/06:00pm 17.4 15.1 5.9 46 5.6 NNW 7 19 4 10 - - -
19/05:30pm 17.6 14.9 5.8 46 5.8 NW 9 26 5 14 - - -
19/05:00pm 17.7 15.5 6.3 47 5.6 NNW 7 15 4 8 - - -
19/04:30pm 18.1 15.6 6.6 47 5.7 NW 9 22 5 12 - - -
19/04:00pm 18.1 16.1 6.9 48 5.6 NW 7 26 4 14 - - -
19/03:30pm 18.1 15.8 7.5 50 5.4 W 9 28 5 15 - - -
19/03:00pm 17.9 16.2 8.4 53 4.9 NW 7 17 4 9 - - -
19/02:30pm 17.6 15.9 8.4 55 4.7 WNW 7 17 4 9 - - -
19/02:00pm 18.0 15.6 8.8 55 4.8 NW 11 26 6 14 - - -
19/01:30pm 17.0 15.5 9.2 60 4.1 NW 7 30 4 16 - - -
19/01:00pm 16.7 15.4 10.1 65 3.5 NW 7 19 4 10 - - -
19/12:30pm 15.6 15.1 10.6 72 2.6 NW 4 13 2 7 - - -
19/12:00pm 15.4 14.1 9.9 70 2.9 WNW 7 17 4 9 - - -
19/11:30am 15.1 13.9 10.3 73 2.5 NW 7 17 4 9 - - -
19/11:00am 15.4 14.1 9.9 70 2.9 NW 7 19 4 10 - - -
19/10:30am 15.5 14.2 9.8 69 3.0 NW 7 17 4 9 - - -
19/10:00am 15.0 13.9 10.0 72 2.6 NW 6 13 3 7 - - -
19/09:30am 14.3 13.0 9.8 74 2.3 NW 7 19 4 10 - - -
19/09:00am 13.5 12.3 9.6 77 2.0 WNW 6 19 3 10 - - -
19/08:30am 13.0 12.1 9.4 79 1.8 W 4 13 2 7 - - -
19/08:00am 12.5 11.6 9.3 81 1.6 WNW 4 9 2 5 - - -
19/07:30am 12.3 11.8 9.3 82 1.5 W 2 6 1 3 - - -
19/07:00am 11.8 11.2 9.0 83 1.4 NNW 2 6 1 3 - - -
19/06:30am 11.0 10.3 8.6 85 1.2 WSW 2 4 1 2 - - -
19/06:00am 10.7 9.8 7.9 83 1.4 W 2 4 1 2 - - -
19/05:30am 11.5 10.8 8.4 81 1.5 WSW 2 6 1 3 - - -
19/05:00am 11.8 11.0 8.3 79 1.7 S 2 6 1 3 - - -
19/04:30am 11.0 9.8 8.1 82 1.4 WSW 4 6 2 3 - - -
19/04:00am 10.1 9.2 7.7 85 1.2 S 2 6 1 3 - - -
19/03:30am 10.1 9.1 7.2 82 1.4 WSW 2 6 1 3 - - -
19/03:00am 11.7 10.8 7.6 76 2.0 WSW 2 6 1 3 - - -
19/02:30am 12.8 11.3 8.3 74 2.2 WNW 6 15 3 8 - - -
19/02:00am 12.6 11.1 8.3 75 2.1 W 6 13 3 7 - - -
19/01:30am 12.7 11.0 8.4 75 2.1 W 7 22 4 12 - - -
19/01:00am 12.6 11.5 8.5 76 2.0 WNW 4 19 2 10 - - -
19/12:30am 12.5 11.3 8.2 75 2.1 NW 4 9 2 5 - - -
19/12:00am 12.5 11.3 8.2 75 2.1 SW 4 9 2 5 - - -
 
Date/Time
EST
Temp
°C
App
Temp
°C
Dew
Point
°C
Rel
Hum
%
Delta-T
°C
Wind Press
QNH
hPa
Press
MSL
hPa
Rain since
9am
mm
Dir  Spd
km/h
Gust
km/h
Spd
kts
Gust
kts
18/11:30pm 13.0 11.9 8.3 73 2.3 SW 4 11 2 6 - - -
18/11:00pm 13.5 11.9 8.8 73 2.4 SSW 7 15 4 8 - - -
18/10:30pm 13.0 12.4 8.9 76 2.1 WSW 2 6 1 3 - - -
18/10:00pm 14.1 13.2 9.1 72 2.5 WSW 4 11 2 6 - - -
18/09:30pm 14.5 12.7 9.3 71 2.7 WSW 9 20 5 11 - - -

Other formats

Comma delimited format used in spreadsheet applications
http://www.bom.gov.au/fwo/IDV60801/IDV60801.99812.axf

JavaScript Object Notation format (JSON) in row-major order
http://www.bom.gov.au/fwo/IDV60801/IDV60801.99812.json

Data quality

Most of these data are generated automatically and are frequently updated. Quality checks on data are not normally performed. It is possible for incorrect values to appear. Refer to information at About Latest Weather Observations and please check the disclaimer before using these data.